Pagrindinis puslapis
METAR-TAF:

METAR-TAF

Oro uostai :

Nelson Lagoon, Aliaska, Jungtinės Amerikos Valstijos

platuma: 56-00-27N, ilguma: 161-09-37W, Aukštis: 4 m

Dabartinis oras

Ataskaita buvo paskelbta 29 minutes, ne 05:56 UTC
Vėjas 3 kt iš Šiaurės/Šiaurės Vakarų
Temperatūra 7°C
Drėgmė 93%
Slėgis 1017 hPa
Matomumas: 16.1 km
Apsiniaukę ne aukštis 5000 ft

METAR: PAOU 070556Z AUTO 34003KT 10SM OVC050 07/06 A3004 RMK AO2 SLP173 6//// T00720056 10094 20072 55003 PNO $

Laikas: 22:25 (06:25 UTC)


TAF: trūkstamas

Orai ataskaitas ir orų prognozės (METAR, TAF).

turimą stotys yra geltonos ir raudonos taškus žemėlapyje.

Perkelti pele per norėdami pamatyti stoties vardą.

Tada spustelėkite, norėdami matyti oro stebėjimo ir prognozės.

Norėdami pakeisti žemėlapį: spustelėkite ant žalios mygtukų su juodo kryžiaus žemyn,; žalią mygtuką su brūkšneliu, jei norite nutolinti; arba žalių rodyklių gretimoms žemėlapius.


METAR-TAF: